Time;durP1;ratioP1;P1;durP2;ratioP2;P2;SDS_P1;SDS_P2;PMS_P1;PMS_P2;Temp;Humidity;BMP_temperature;BMP_pressure;BME280_temperature;BME280_humidity;BME280_pressure;Samples;Min_cycle;Max_cycle;Signal;HPM_P1;HPM_P2
2022/06/25 00:01:41;;;;;;;3.27;2.98;;;;;;;18.03;63.31;100167.31;1643843;85;20203;-62
2022/06/25 00:05:27;;;;;;;;;;;;;;;17.93;63.74;100159.02;1673557;84;21088;-62
2022/06/25 00:06:37;;;;;;;3.15;2.95;;;;;;;17.89;64.28;100161.41;1665558;85;20115;-63
2022/06/25 00:09:04;;;;;;;2.65;2.47;;;;;;;17.82;64.71;100164.74;1628919;87;21092;-61
2022/06/25 00:14:15;;;;;;;2.20;1.95;;;;;;;17.79;64.91;100162.52;1702163;83;20242;-63
2022/06/25 00:16:41;;;;;;;3.50;2.30;;;;;;;17.71;64.77;100165.06;1678661;83;21081;-63
2022/06/25 00:19:07;;;;;;;2.72;2.02;;;;;;;17.70;64.76;100163.95;1679944;83;21537;-63
2022/06/25 00:21:34;;;;;;;2.40;2.10;;;;;;;17.69;64.50;100160.44;1670949;83;21173;-62
2022/06/25 00:24:01;;;;;;;2.00;1.90;;;;;;;17.71;64.38;100165.06;1665190;84;21073;-62
2022/06/25 00:26:27;;;;;;;;;;;;;;;17.69;64.18;100150.20;1683637;83;21113;-62
2022/06/25 00:28:54;;;;;;;5.05;2.52;;;;;;;17.77;64.29;100158.43;1692408;83;20209;-63
2022/06/25 00:31:20;;;;;;;4.20;2.60;;;;;;;17.73;64.40;100163.48;1639998;85;22127;-65
2022/06/25 00:33:46;;;;;;;2.85;2.00;;;;;;;17.71;64.76;100165.06;1669166;83;21052;-61
2022/06/25 00:36:13;;;;;;;3.67;2.70;;;;;;;17.69;64.92;100165.83;1662352;83;21069;-61
2022/06/25 00:38:39;;;;;;;9.68;2.55;;;;;;;17.67;65.31;100162.56;1671041;83;21022;-62
2022/06/25 00:41:06;;;;;;;3.80;2.80;;;;;;;17.64;65.51;100161.68;1661437;84;21049;-61
2022/06/25 00:43:40;;;;;;;3.15;2.50;;;;;;;17.62;65.96;100164.34;1663212;83;21128;-63
2022/06/25 00:46:06;;;;;;;4.97;2.67;;;;;;;17.58;65.93;100166.69;1672562;84;21017;-62
2022/06/25 00:48:33;;;;;;;2.77;2.33;;;;;;;17.54;66.12;100165.53;1677864;84;20994;-62
2022/06/25 00:51:06;;;;;;;4.15;2.72;;;;;;;17.52;66.49;100164.95;1678273;84;21073;-63
2022/06/25 00:53:34;;;;;;;3.25;2.58;;;;;;;17.48;66.82;100175.39;1674545;84;22284;-62
2022/06/25 00:56:03;;;;;;;3.17;2.87;;;;;;;17.43;66.93;100169.88;1681891;84;22025;-62
2022/06/25 00:58:32;;;;;;;10.65;3.17;;;;;;;17.39;67.35;100167.38;1696102;83;21069;-62
2022/06/25 01:01:00;;;;;;;3.40;3.20;;;;;;;17.38;67.59;100177.85;1697089;83;21067;-62
2022/06/25 01:03:30;;;;;;;3.42;2.90;;;;;;;17.36;67.67;100179.16;1694437;83;21085;-63
2022/06/25 01:05:57;;;;;;;3.58;3.27;;;;;;;17.34;67.65;100173.19;1672501;84;21052;-61
2022/06/25 01:08:24;;;;;;;3.05;2.95;;;;;;;17.29;67.70;100178.77;1654230;84;21159;-61
2022/06/25 01:10:51;;;;;;;2.92;2.72;;;;;;;17.26;67.83;100181.92;1647477;84;21080;-60
2022/06/25 01:13:22;;;;;;;3.62;2.00;;;;;;;17.20;68.09;100178.83;1644448;84;21072;-62
2022/06/25 01:15:49;;;;;;;3.02;2.83;;;;;;;17.14;68.49;100175.74;1630240;86;21015;-61
2022/06/25 01:18:17;;;;;;;4.10;3.00;;;;;;;17.08;68.77;100182.05;1663294;84;21081;-61
2022/06/25 01:20:45;;;;;;;3.40;3.20;;;;;;;17.07;68.99;100185.28;1659467;84;21087;-63
2022/06/25 01:23:13;;;;;;;3.70;3.50;;;;;;;17.03;69.19;100177.91;1653360;84;21501;-62
2022/06/25 01:25:41;;;;;;;2.87;2.72;;;;;;;16.98;69.42;100186.68;1665906;84;21132;-63
2022/06/25 01:28:08;;;;;;;3.83;3.37;;;;;;;16.96;69.69;100189.33;1651017;84;21060;-62
2022/06/25 01:30:35;;;;;;;5.53;3.62;;;;;;;16.92;70.01;100185.75;1665259;84;21026;-62
2022/06/25 01:33:09;;;;;;;4.37;3.42;;;;;;;16.87;70.23;100180.23;1648252;85;21558;-62
2022/06/25 01:35:36;;;;;;;4.35;3.10;;;;;;;16.81;70.67;100182.48;1690860;83;21109;-63
2022/06/25 01:38:03;;;;;;;3.45;3.15;;;;;;;16.80;70.89;100184.91;1654050;85;21065;-62
2022/06/25 01:40:33;;;;;;;3.27;2.98;;;;;;;16.77;71.14;100184.02;1607088;87;21552;-62
2022/06/25 01:43:01;;;;;;;3.52;3.33;;;;;;;16.74;71.24;100181.78;1644315;85;21510;-61
2022/06/25 01:45:32;;;;;;;3.47;2.80;;;;;;;16.73;71.49;100186.88;1633500;87;21019;-61
2022/06/25 01:48:00;;;;;;;6.70;3.65;;;;;;;16.71;71.66;100199.75;1636867;86;21064;-61
2022/06/25 01:50:29;;;;;;;4.22;3.90;;;;;;;16.66;72.03;100192.36;1643087;86;21135;-62
2022/06/25 01:52:57;;;;;;;6.40;3.80;;;;;;;16.68;72.06;100198.86;1668013;85;21003;-61
2022/06/25 01:55:23;;;;;;;6.28;3.45;;;;;;;16.67;71.99;100194.52;1644832;86;21225;-61
2022/06/25 01:57:51;;;;;;;5.10;3.20;;;;;;;16.67;71.93;100198.05;1666701;84;21150;-61
2022/06/25 02:00:24;;;;;;;4.28;3.70;;;;;;;16.69;72.18;100201.86;1635316;86;21114;-63
2022/06/25 02:02:54;;;;;;;3.65;3.22;;;;;;;16.67;72.25;100197.20;1675859;84;21053;-60
2022/06/25 02:08:10;;;;;;;3.30;3.10;;;;;;;16.61;72.54;100194.92;1659812;84;21054;-62
2022/06/25 02:10:38;;;;;;;4.33;2.83;;;;;;;16.60;72.93;100193.83;1663568;84;21692;-62
2022/06/25 02:13:51;;;;;;;2.90;2.37;;;;;;;16.65;73.32;100197.47;1795355;78;22866;-61
2022/06/25 02:16:17;;;;;;;3.17;2.72;;;;;;;16.63;73.75;100200.08;1750543;80;21104;-61
2022/06/25 02:18:43;;;;;;;2.95;2.83;;;;;;;16.67;73.92;100198.55;1742712;80;21027;-63
2022/06/25 02:21:10;;;;;;;3.55;3.15;;;;;;;16.77;74.09;100198.81;1759031;80;21014;-62
2022/06/25 02:23:37;;;;;;;3.42;3.22;;;;;;;17.02;74.06;100196.45;1728398;80;21032;-61
2022/06/25 02:26:03;;;;;;;;;;;;;;;17.37;73.29;100200.48;1716631;81;21085;-62
2022/06/25 02:28:33;;;;;;;2.87;2.67;;;;;;;17.77;71.99;100194.29;1721798;81;20523;-62
2022/06/25 02:31:00;;;;;;;3.27;2.98;;;;;;;18.11;70.85;100195.77;1722581;81;21077;-64
2022/06/25 02:33:26;;;;;;;3.37;2.77;;;;;;;18.52;69.37;100196.50;1724022;81;21009;-62
2022/06/25 02:35:52;;;;;;;4.90;2.72;;;;;;;18.90;67.96;100195.50;1720348;81;21071;-61
2022/06/25 02:38:19;;;;;;;3.10;2.83;;;;;;;19.26;66.68;100197.64;1717921;81;21105;-63
2022/06/25 02:40:47;;;;;;;4.33;2.77;;;;;;;19.67;64.65;100189.80;1653179;85;22076;-63
2022/06/25 02:43:14;;;;;;;2.20;2.00;;;;;;;20.09;62.62;100191.91;1660712;85;21108;-62
2022/06/25 02:45:42;;;;;;;2.45;2.35;;;;;;;20.50;60.48;100195.00;1649597;82;21036;-64
2022/06/25 02:48:10;;;;;;;2.58;2.33;;;;;;;20.86;58.49;100196.12;1639869;85;21062;-63
2022/06/25 02:50:37;;;;;;;1.60;1.50;;;;;;;21.24;57.15;100194.73;1671576;84;21068;-64
2022/06/25 02:53:04;;;;;;;1.77;1.65;;;;;;;21.58;54.91;100190.58;1677105;84;21021;-63
2022/06/25 03:01:01;;;;;;;1.67;1.57;;;;;;;22.31;52.42;100197.86;1657236;83;21165;-65
2022/06/25 03:03:28;;;;;;;3.85;2.05;;;;;;;22.77;49.77;100193.52;1645618;85;21057;-65
2022/06/25 03:05:54;;;;;;;2.72;1.25;;;;;;;22.95;48.61;100194.32;1634374;86;21072;-63
2022/06/25 03:08:21;;;;;;;2.02;1.85;;;;;;;22.92;47.70;100193.50;1639934;85;21052;-63
2022/06/25 03:10:48;;;;;;;2.90;1.77;;;;;;;22.81;48.02;100190.52;1648444;85;21038;-64
2022/06/25 03:13:14;;;;;;;1.45;1.05;;;;;;;22.76;48.15;100190.00;1655127;85;21074;-66
2022/06/25 03:15:41;;;;;;;1.20;1.10;;;;;;;22.91;48.35;100193.25;1664523;84;21184;-62
2022/06/25 03:18:09;;;;;;;4.10;1.40;;;;;;;23.16;47.52;100200.56;1666267;84;21133;-63
2022/06/25 03:20:46;;;;;;;1.12;0.72;;;;;;;23.33;46.91;100196.97;1666263;84;21760;-63
2022/06/25 03:23:12;;;;;;;1.57;1.05;;;;;;;23.50;46.34;100199.91;1665581;84;21014;-64
2022/06/25 03:25:40;;;;;;;3.72;0.93;;;;;;;23.52;46.17;100198.53;1675486;84;21516;-63
2022/06/25 03:28:07;;;;;;;3.60;1.30;;;;;;;23.64;45.74;100195.52;1676190;84;21208;-64
2022/06/25 03:30:36;;;;;;;0.60;0.60;;;;;;;23.64;45.23;100200.12;1672854;84;21177;-65
2022/06/25 03:33:03;;;;;;;2.22;0.70;;;;;;;23.79;45.19;100196.55;1669642;84;21049;-64
2022/06/25 03:35:47;;;;;;;0.95;0.93;;;;;;;24.08;44.62;100203.48;1670411;84;21133;-63
2022/06/25 03:38:15;;;;;;;0.95;0.95;;;;;;;24.24;43.94;100194.12;1669381;84;21619;-65
2022/06/25 03:40:42;;;;;;;5.62;0.85;;;;;;;24.47;43.58;100202.67;1671341;84;21128;-64
2022/06/25 03:43:08;;;;;;;2.55;1.00;;;;;;;24.91;42.62;100193.58;1681157;84;21068;-64
2022/06/25 03:45:38;;;;;;;1.22;1.15;;;;;;;25.27;41.90;100198.69;1672545;81;21045;-62
2022/06/25 03:48:05;;;;;;;1.37;1.07;;;;;;;25.35;41.41;100202.13;1685905;83;21117;-64
2022/06/25 03:50:34;;;;;;;2.58;1.42;;;;;;;25.53;41.18;100201.13;1688635;83;21605;-64
2022/06/25 03:53:01;;;;;;;4.60;1.32;;;;;;;25.80;40.64;100205.40;1686218;83;21165;-65
2022/06/25 03:55:27;;;;;;;1.25;1.07;;;;;;;26.03;40.38;100209.23;1684199;81;21020;-64
2022/06/25 03:57:54;;;;;;;1.00;1.00;;;;;;;26.39;39.82;100213.33;1659891;84;21103;-64
2022/06/25 04:00:25;;;;;;;0.90;0.90;;;;;;;26.93;38.97;100211.91;1656303;83;21041;-64
2022/06/25 04:02:57;;;;;;;3.83;1.05;;;;;;;27.38;37.84;100217.66;1682664;83;21168;-64
2022/06/25 04:05:30;;;;;;;3.65;0.85;;;;;;;27.54;38.13;100226.39;1679074;83;21096;-65
2022/06/25 04:07:59;;;;;;;4.33;1.00;;;;;;;27.89;36.84;100230.08;1667471;83;21122;-65
2022/06/25 04:10:27;;;;;;;2.98;1.17;;;;;;;28.26;36.89;100226.80;1691569;83;21608;-64
2022/06/25 04:12:54;;;;;;;1.70;0.78;;;;;;;28.52;35.35;100226.47;1706984;82;21289;-64
2022/06/25 04:15:20;;;;;;;1.25;0.50;;;;;;;28.49;35.35;100221.56;1708366;83;21049;-64
2022/06/25 04:17:47;;;;;;;1.07;1.07;;;;;;;28.58;35.46;100218.12;1675094;85;21081;-63
2022/06/25 04:20:13;;;;;;;0.95;0.70;;;;;;;28.80;35.07;100219.47;1682249;85;22109;-64
2022/06/25 04:22:39;;;;;;;3.70;0.80;;;;;;;28.91;34.76;100222.20;1647330;86;21007;-64
2022/06/25 04:25:08;;;;;;;1.85;0.85;;;;;;;28.95;34.17;100227.04;1593147;88;21105;-63
2022/06/25 04:30:19;;;;;;;2.00;1.10;;;;;;;28.95;34.04;100228.41;1632554;85;21519;-64
2022/06/25 04:32:48;;;;;;;2.27;0.95;;;;;;;29.05;34.53;100228.16;1591497;88;21681;-65
2022/06/25 04:35:17;;;;;;;1.30;0.60;;;;;;;29.35;33.86;100228.45;1648632;87;21082;-65
2022/06/25 04:37:44;;;;;;;4.33;1.12;;;;;;;29.55;33.44;100237.48;1598360;89;21117;-65
2022/06/25 04:40:13;;;;;;;0.90;0.60;;;;;;;29.54;33.46;100235.89;1623889;88;21501;-65
2022/06/25 04:42:39;;;;;;;11.65;1.30;;;;;;;29.70;33.06;100239.82;1641829;87;21628;-71
2022/06/25 04:45:08;;;;;;;0.82;0.50;;;;;;;29.53;33.13;100246.61;1593486;89;21130;-70
2022/06/25 04:47:36;;;;;;;0.70;0.70;;;;;;;29.28;33.59;100242.66;1591646;89;21104;-70
2022/06/25 04:50:06;;;;;;;0.80;0.55;;;;;;;28.99;33.89;100245.86;1603160;88;21103;-77
2022/06/25 04:52:32;;;;;;;0.85;0.70;;;;;;;28.68;34.30;100235.11;1601900;88;21151;-71
2022/06/25 04:54:58;;;;;;;2.10;0.70;;;;;;;28.61;34.52;100243.52;1608654;88;21084;-74
2022/06/25 04:57:25;;;;;;;1.05;0.65;;;;;;;28.30;34.76;100249.15;1629457;87;21033;-75
2022/06/25 04:59:58;;;;;;;3.50;0.80;;;;;;;27.97;35.55;100252.62;1628075;86;21139;-73
2022/06/25 05:02:26;;;;;;;1.52;0.40;;;;;;;27.59;35.99;100248.73;1681575;84;21030;-74
2022/06/25 05:04:54;;;;;;;0.82;0.55;;;;;;;27.48;36.41;100252.78;1683480;84;21053;-73
2022/06/25 05:07:20;;;;;;;1.70;0.45;;;;;;;27.43;36.50;100261.12;1666548;84;21054;-72
2022/06/25 05:09:46;;;;;;;2.17;0.95;;;;;;;27.35;36.61;100268.91;1679032;84;21383;-71
2022/06/25 05:13:11;;;;;;;3.25;0.95;;;;;;;27.69;36.46;100264.13;1677761;82;21029;-72
2022/06/25 05:14:42;;;;;;;0.90;0.40;;;;;;;28.15;36.06;100265.95;1674068;82;21097;-77
2022/06/25 05:17:08;;;;;;;0.93;0.60;;;;;;;28.24;35.22;100224.36;1695921;82;21505;-75
2022/06/25 05:19:35;;;;;;;1.65;0.40;;;;;;;28.47;34.95;100253.16;1666025;84;21098;-74
2022/06/25 05:22:02;;;;;;;1.02;0.65;;;;;;;28.62;34.65;100261.61;1656035;84;21097;-72
2022/06/25 05:24:29;;;;;;;1.87;0.50;;;;;;;28.70;34.38;100253.42;1696944;82;22396;-73
2022/06/25 05:26:55;;;;;;;3.22;0.50;;;;;;;28.73;34.50;100257.50;1700848;82;21189;-71
2022/06/25 05:29:21;;;;;;;1.87;0.50;;;;;;;28.65;34.59;100252.74;1698219;82;21134;-72
2022/06/25 05:31:47;;;;;;;0.95;0.50;;;;;;;28.67;34.57;100251.87;1683921;84;21116;-77
2022/06/25 05:34:14;;;;;;;0.62;0.37;;;;;;;28.41;35.07;100248.92;1691549;82;21180;-83
2022/06/25 05:36:43;;;;;;;0.90;0.45;;;;;;;28.23;35.43;100257.55;1655573;84;21168;-71
2022/06/25 05:39:10;;;;;;;1.05;0.30;;;;;;;28.23;35.10;100261.66;1661377;84;21080;-78
2022/06/25 05:41:36;;;;;;;1.98;0.70;;;;;;;28.49;34.64;100260.51;1655898;84;21031;-77
2022/06/25 05:44:03;;;;;;;0.88;0.30;;;;;;;28.59;34.30;100257.54;1663984;84;21088;-78
2022/06/25 05:46:29;;;;;;;1.40;0.40;;;;;;;28.38;34.32;100261.30;1664826;84;21168;-82
2022/06/25 05:48:55;;;;;;;0.98;0.30;;;;;;;28.10;34.64;100266.05;1670712;84;21090;-72
2022/06/25 05:51:21;;;;;;;4.95;0.70;;;;;;;28.09;34.61;100277.58;1701719;82;21061;-72
2022/06/25 05:53:47;;;;;;;2.60;0.30;;;;;;;28.27;34.54;100265.39;1658450;84;21046;-73
2022/06/25 05:56:13;;;;;;;0.75;0.30;;;;;;;28.62;34.04;100271.21;1636727;86;21170;-73
2022/06/25 05:58:40;;;;;;;2.47;0.35;;;;;;;29.01;33.41;100262.27;1697994;82;21095;-72
2022/06/25 06:01:07;;;;;;;0.45;0.30;;;;;;;29.24;33.08;100265.80;1685756;84;21053;-74
2022/06/25 06:03:34;;;;;;;2.25;0.53;;;;;;;28.93;33.55;100268.50;1703601;84;21634;-73
2022/06/25 06:06:00;;;;;;;0.28;0.28;;;;;;;28.62;34.17;100278.06;1696566;84;21549;-74
2022/06/25 06:08:27;;;;;;;1.75;0.30;;;;;;;28.61;33.60;100279.17;1684471;84;21064;-72
2022/06/25 06:10:53;;;;;;;2.85;0.62;;;;;;;28.78;33.49;100282.03;1689124;84;21473;-73
2022/06/25 06:13:20;;;;;;;0.37;0.30;;;;;;;29.07;32.71;100280.21;1709431;84;21689;-71
2022/06/25 06:15:48;;;;;;;0.72;0.45;;;;;;;29.22;32.78;100276.86;1664466;86;21129;-73
2022/06/25 06:18:14;;;;;;;0.33;0.33;;;;;;;29.39;32.76;100280.25;1663859;86;21078;-72
2022/06/25 06:20:42;;;;;;;0.50;0.50;;;;;;;29.38;32.71;100277.25;1705060;84;21560;-74
2022/06/25 06:23:08;;;;;;;0.60;0.33;;;;;;;29.15;32.55;100276.50;1657048;83;21018;-72
2022/06/25 06:25:34;;;;;;;0.82;0.40;;;;;;;28.69;33.38;100274.33;1698768;84;21089;-76
2022/06/25 06:28:00;;;;;;;1.37;0.40;;;;;;;28.40;33.32;100294.69;1667974;84;21594;-77
2022/06/25 06:30:27;;;;;;;0.40;0.30;;;;;;;28.41;33.26;100277.14;1694020;84;21088;-76
2022/06/25 06:32:53;;;;;;;1.37;0.30;;;;;;;28.54;33.26;100273.56;1703039;84;20998;-77
2022/06/25 06:35:22;;;;;;;0.20;0.20;;;;;;;28.72;32.41;100275.86;1699758;82;21565;-78
2022/06/25 06:37:47;;;;;;;1.85;0.37;;;;;;;28.83;32.68;100290.14;1660597;84;21089;-79
2022/06/25 06:40:15;;;;;;;1.82;0.50;;;;;;;28.90;32.41;100286.41;1653531;85;21534;-78
2022/06/25 06:42:41;;;;;;;1.57;0.40;;;;;;;28.69;32.37;100286.67;1704604;82;21128;-77
2022/06/25 06:45:10;;;;;;;1.25;0.28;;;;;;;28.37;32.61;100279.42;1702507;82;21041;-79
2022/06/25 06:47:37;;;;;;;3.15;0.30;;;;;;;28.32;32.99;100287.22;1707788;83;21522;-80
2022/06/25 06:50:04;;;;;;;3.12;0.47;;;;;;;28.31;32.88;100269.14;1703987;84;21134;-78
2022/06/25 06:52:30;;;;;;;1.02;0.50;;;;;;;28.50;33.00;100272.55;1670686;85;21058;-78
2022/06/25 06:54:59;;;;;;;1.27;0.37;;;;;;;28.60;32.96;100277.56;1664007;86;21649;-78
2022/06/25 06:57:25;;;;;;;0.53;0.50;;;;;;;28.21;33.46;100274.30;1701443;82;21005;-80
2022/06/25 06:59:51;;;;;;;0.75;0.20;;;;;;;27.93;34.03;100274.91;1692060;84;21075;-80
2022/06/25 07:02:17;;;;;;;6.90;0.35;;;;;;;27.61;33.69;100295.78;1695840;83;21639;-78
2022/06/25 07:04:44;;;;;;;0.93;0.30;;;;;;;27.51;33.21;100282.30;1637898;87;21201;-78
2022/06/25 07:07:10;;;;;;;2.52;0.30;;;;;;;27.50;34.07;100316.25;1636434;86;21035;-78
2022/06/25 07:09:36;;;;;;;4.08;0.40;;;;;;;27.45;32.83;100294.47;1689163;83;21539;-78
2022/06/25 07:12:03;;;;;;;5.10;0.20;;;;;;;27.61;33.05;100303.98;1690039;84;21020;-79
2022/06/25 07:14:34;;;;;;;0.37;0.28;;;;;;;27.74;32.42;100287.31;1687275;84;21037;-78
2022/06/25 07:17:00;;;;;;;1.85;0.10;;;;;;;27.84;32.50;100299.98;1689161;84;21427;-79
2022/06/25 07:19:26;;;;;;;1.52;0.20;;;;;;;27.98;31.79;100307.67;1695932;84;21186;-76
2022/06/25 07:21:54;;;;;;;1.52;0.20;;;;;;;28.14;32.02;100306.78;1698677;84;21025;-77
2022/06/25 07:24:21;;;;;;;0.23;0.20;;;;;;;28.23;31.25;100317.84;1698548;82;21096;-78
2022/06/25 07:26:48;;;;;;;0.25;0.20;;;;;;;28.24;31.18;100298.35;1715161;82;20971;-78
2022/06/25 07:29:17;;;;;;;3.33;0.30;;;;;;;28.28;31.13;100307.58;1700926;83;21583;-78
2022/06/25 07:31:46;;;;;;;1.02;0.20;;;;;;;28.29;32.08;100278.23;1708153;83;21026;-80
2022/06/25 07:34:12;;;;;;;0.85;0.30;;;;;;;28.38;31.04;100303.79;1703932;82;21108;-78
2022/06/25 07:36:39;;;;;;;1.87;0.45;;;;;;;28.44;30.70;100297.06;1709534;83;21018;-78
2022/06/25 07:39:05;;;;;;;0.47;0.30;;;;;;;28.41;31.06;100294.96;1702116;83;21001;-76
2022/06/25 07:41:32;;;;;;;1.22;0.10;;;;;;;28.29;31.36;100289.19;1715714;83;21058;-78
2022/06/25 07:43:58;;;;;;;2.60;0.40;;;;;;;28.13;30.80;100306.55;1713683;83;21503;-78
2022/06/25 07:46:25;;;;;;;1.20;0.35;;;;;;;27.82;31.05;100296.74;1692765;83;21126;-77
2022/06/25 07:48:51;;;;;;;1.10;0.30;;;;;;;27.48;32.09;100291.11;1702436;83;21137;-78
2022/06/25 07:54:02;;;;;;;0.72;0.45;;;;;;;26.99;33.37;100295.52;1703244;83;21092;-80
2022/06/25 07:56:28;;;;;;;0.30;0.20;;;;;;;26.92;33.94;100295.64;1708900;82;20987;-77
2022/06/25 07:58:56;;;;;;;2.50;0.25;;;;;;;26.94;33.83;100305.16;1713862;82;20998;-76
2022/06/25 08:01:23;;;;;;;0.75;0.20;;;;;;;26.98;33.73;100318.49;1694601;83;21545;-78
2022/06/25 08:03:49;;;;;;;1.27;0.40;;;;;;;26.84;33.86;100318.18;1697891;83;21005;-77
2022/06/25 08:06:15;;;;;;;4.60;0.30;;;;;;;26.63;34.63;100323.16;1695440;83;21500;-77
2022/06/25 08:08:41;;;;;;;1.37;0.40;;;;;;;26.44;35.03;100316.30;1702986;83;21525;-77
2022/06/25 08:11:08;;;;;;;1.10;0.30;;;;;;;26.27;35.46;100320.34;1711562;82;21058;-78
2022/06/25 08:13:37;;;;;;;2.70;0.33;;;;;;;26.16;35.70;100302.45;1709253;82;21584;-70
2022/06/25 08:16:05;;;;;;;1.17;0.57;;;;;;;26.03;35.99;100313.02;1659430;86;21071;-74
2022/06/25 08:18:31;;;;;;;1.62;0.40;;;;;;;25.92;36.44;100307.95;1700902;83;21005;-76
2022/06/25 08:20:59;;;;;;;3.42;0.68;;;;;;;25.87;36.45;100306.08;1703247;83;21042;-81
2022/06/25 08:23:26;;;;;;;1.90;0.20;;;;;;;25.91;36.19;100297.55;1708205;82;21018;-73
2022/06/25 08:25:52;;;;;;;0.80;0.30;;;;;;;26.04;36.20;100296.06;1699044;83;21100;-76
2022/06/25 08:28:20;;;;;;;3.80;0.40;;;;;;;26.25;36.47;100291.14;1713809;83;21464;-73
2022/06/25 08:30:47;;;;;;;3.60;0.75;;;;;;;26.39;35.89;100288.47;1702462;83;21018;-76
2022/06/25 08:33:14;;;;;;;0.90;0.75;;;;;;;26.43;35.87;100286.80;1702623;82;21548;-74
2022/06/25 08:35:42;;;;;;;0.60;0.40;;;;;;;26.40;36.32;100286.02;1711027;82;21513;-72
2022/06/25 08:38:12;;;;;;;1.10;0.40;;;;;;;26.44;36.26;100294.44;1711128;83;20991;-77
2022/06/25 08:40:39;;;;;;;2.02;0.40;;;;;;;26.41;36.21;100282.98;1705064;83;21038;-77
2022/06/25 08:43:05;;;;;;;0.72;0.30;;;;;;;26.33;36.25;100286.93;1704159;83;21116;-76
2022/06/25 08:45:33;;;;;;;2.92;0.42;;;;;;;26.19;36.10;100293.12;1709945;82;21017;-76
2022/06/25 08:48:01;;;;;;;2.45;0.40;;;;;;;26.06;36.61;100290.31;1707464;83;21011;-74
2022/06/25 08:50:28;;;;;;;0.75;0.30;;;;;;;25.96;35.92;100283.88;1701757;83;21599;-72
2022/06/25 08:52:55;;;;;;;9.10;0.60;;;;;;;25.92;36.06;100294.30;1713355;83;21133;-75
2022/06/25 08:55:34;;;;;;;0.98;0.47;;;;;;;25.87;36.09;100294.34;1704413;82;21135;-77
2022/06/25 08:58:09;;;;;;;5.53;0.57;;;;;;;25.75;35.85;100290.64;1699534;82;21007;-74
2022/06/25 09:00:40;;;;;;;1.62;0.35;;;;;;;25.69;36.09;100289.09;1716279;83;21537;-72
2022/06/25 09:03:08;;;;;;;0.35;0.20;;;;;;;25.66;36.17;100286.95;1717048;83;22178;-75
2022/06/25 09:05:40;;;;;;;6.72;0.53;;;;;;;25.67;36.13;100279.81;1701657;83;20998;-71
2022/06/25 09:08:13;;;;;;;1.15;0.30;;;;;;;25.67;36.88;100284.47;1702454;83;21145;-74
2022/06/25 09:10:46;;;;;;;0.88;0.50;;;;;;;25.63;36.19;100293.23;1705172;83;21103;-82
2022/06/25 09:13:14;;;;;;;1.05;0.30;;;;;;;25.61;36.49;100287.25;1698434;83;21053;-74
2022/06/25 09:15:45;;;;;;;0.62;0.30;;;;;;;25.61;36.89;100291.34;1704657;83;21002;-72
2022/06/25 09:18:16;;;;;;;1.45;0.30;;;;;;;25.65;36.85;100295.67;1702193;83;21038;-74
2022/06/25 09:21:05;;;;;;;0.65;0.60;;;;;;;25.72;36.68;100306.26;1708026;83;21592;-78
2022/06/25 09:23:39;;;;;;;2.92;0.40;;;;;;;25.78;36.34;100291.44;1703432;82;21026;-75
2022/06/25 09:26:11;;;;;;;1.90;0.35;;;;;;;25.57;36.53;100245.84;1699942;83;21065;-73
2022/06/25 09:28:47;;;;;;;0.30;0.30;;;;;;;25.77;36.82;100290.63;1702538;83;21040;-72
2022/06/25 09:31:11;;;;;;;0.65;0.35;;;;;;;25.65;37.06;100292.95;1708326;83;21058;-75
2022/06/25 09:33:40;;;;;;;0.62;0.30;;;;;;;25.56;37.36;100290.06;1689703;82;21652;-74
2022/06/25 09:36:09;;;;;;;1.60;0.40;;;;;;;25.51;37.24;100285.20;1706198;84;21558;-74
2022/06/25 09:38:48;;;;;;;0.35;0.20;;;;;;;25.44;37.56;100293.16;1709922;84;20979;-72
2022/06/25 09:41:15;;;;;;;4.60;0.47;;;;;;;25.45;37.39;100297.53;1664972;86;21076;-70
2022/06/25 09:43:47;;;;;;;0.78;0.40;;;;;;;25.61;36.84;100300.09;1669004;86;21104;-72
2022/06/25 09:46:09;;;;;;;1.37;0.30;;;;;;;25.79;36.75;100293.88;1690165;82;21101;-72
2022/06/25 09:48:36;;;;;;;0.45;0.20;;;;;;;25.86;36.71;100285.32;1663329;84;21098;-72
2022/06/25 09:51:23;;;;;;;0.65;0.47;;;;;;;25.82;36.32;100294.67;1658829;84;21022;-70
2022/06/25 09:53:57;;;;;;;0.35;0.20;;;;;;;25.79;36.22;100304.80;1707993;82;21022;-72
2022/06/25 09:56:27;;;;;;;;;;;;;;;25.88;35.44;100288.60;1707473;82;21028;-70
2022/06/25 09:58:55;;;;;;;0.40;0.23;;;;;;;26.00;34.84;100285.47;1697024;82;20228;-71
2022/06/25 10:01:31;;;;;;;1.55;0.25;;;;;;;26.02;35.34;100287.36;1656933;84;21058;-72
2022/06/25 10:04:01;;;;;;;0.80;0.28;;;;;;;26.12;35.21;100287.77;1661498;84;21060;-78
2022/06/25 10:06:33;;;;;;;2.47;0.37;;;;;;;26.19;35.79;100301.32;1652132;85;21050;-68
2022/06/25 10:09:05;;;;;;;1.37;0.50;;;;;;;26.21;35.80;100296.94;1687812;82;21767;-67
2022/06/25 10:11:34;;;;;;;0.90;0.45;;;;;;;26.17;35.71;100290.44;1696451;82;21112;-71
2022/06/25 10:14:01;;;;;;;3.30;0.30;;;;;;;26.09;35.83;100297.38;1658860;84;21517;-65
2022/06/25 10:16:29;;;;;;;0.45;0.30;;;;;;;25.98;36.20;100286.32;1695364;82;20986;-67
2022/06/25 10:18:56;;;;;;;0.88;0.37;;;;;;;25.90;36.17;100286.39;1660520;84;21569;-65
2022/06/25 10:21:24;;;;;;;0.30;0.30;;;;;;;25.90;35.78;100276.00;1690083;84;21536;-65
2022/06/25 10:24:02;;;;;;;3.10;0.50;;;;;;;25.98;35.34;100272.66;1698629;82;21025;-65
2022/06/25 10:26:29;;;;;;;0.85;0.40;;;;;;;26.07;35.63;100276.38;1657474;84;21003;-68
2022/06/25 10:28:55;;;;;;;1.05;0.37;;;;;;;26.15;35.34;100290.73;1701980;82;21058;-69
2022/06/25 10:31:22;;;;;;;3.42;0.20;;;;;;;26.17;34.42;100293.98;1702679;82;21002;-69
2022/06/25 10:33:59;;;;;;;1.20;0.40;;;;;;;26.18;33.72;100286.05;1656785;84;20994;-68
2022/06/25 10:36:45;;;;;;;3.20;0.40;;;;;;;26.15;33.43;100281.17;1693345;84;21049;-70
2022/06/25 10:39:32;;;;;;;1.65;0.70;;;;;;;26.16;34.14;100292.37;1660488;86;21031;-69
2022/06/25 10:45:16;;;;;;;0.30;0.30;;;;;;;26.25;34.33;100292.50;1689422;84;21348;-70
2022/06/25 10:47:50;;;;;;;2.65;0.28;;;;;;;26.30;33.96;100286.98;1656414;85;21081;-66
2022/06/25 10:50:26;;;;;;;0.75;0.30;;;;;;;26.38;34.93;100282.77;1641043;86;21102;-67
2022/06/25 10:53:10;;;;;;;1.02;0.37;;;;;;;26.46;35.38;100290.28;1684630;84;21462;-80
2022/06/25 10:55:50;;;;;;;0.40;0.40;;;;;;;26.55;34.66;100304.91;1698511;82;21042;-67
2022/06/25 10:58:24;;;;;;;0.82;0.45;;;;;;;26.56;34.53;100267.45;1695627;82;21104;-67
2022/06/25 11:01:03;;;;;;;0.50;0.30;;;;;;;26.57;34.58;100277.29;1696383;83;21078;-70
2022/06/25 11:03:38;;;;;;;2.00;0.45;;;;;;;26.52;34.19;100297.33;1699404;84;21026;-71
2022/06/25 11:06:18;;;;;;;;;;;;;;;26.40;34.14;100295.58;1702249;84;21467;-70
2022/06/25 11:08:45;;;;;;;0.95;0.20;;;;;;;26.27;34.08;100290.84;1673977;84;20198;-68
2022/06/25 11:11:12;;;;;;;1.15;0.20;;;;;;;26.13;33.89;100271.09;1695698;84;21114;-71
2022/06/25 11:13:41;;;;;;;0.33;0.28;;;;;;;26.15;33.57;100289.36;1691737;84;21121;-71
2022/06/25 11:16:16;;;;;;;1.22;0.20;;;;;;;26.22;33.39;100291.75;1685668;84;21153;-69
2022/06/25 11:18:59;;;;;;;1.07;0.30;;;;;;;26.26;34.39;100295.51;1657550;86;21082;-69
2022/06/25 11:21:36;;;;;;;1.45;0.23;;;;;;;26.30;34.94;100286.17;1657239;86;21101;-69
2022/06/25 11:24:24;;;;;;;1.55;0.28;;;;;;;26.29;34.97;100282.61;1693435;82;21373;-67
2022/06/25 11:29:51;;;;;;;0.70;0.20;;;;;;;26.43;33.15;100289.53;1699083;84;21581;-70
2022/06/25 11:32:26;;;;;;;0.75;0.23;;;;;;;26.56;31.90;100288.78;1670966;86;20995;-68
2022/06/25 11:34:55;;;;;;;1.95;0.20;;;;;;;26.60;31.58;100278.10;1653321;86;22398;-68
2022/06/25 11:37:23;;;;;;;1.82;0.42;;;;;;;26.63;32.00;100258.35;1665288;84;21113;-68
2022/06/25 11:39:50;;;;;;;0.42;0.30;;;;;;;26.72;33.63;100296.77;1662741;84;21061;-70
2022/06/25 11:42:18;;;;;;;1.90;0.40;;;;;;;26.65;33.17;100272.53;1706284;84;21033;-71
2022/06/25 11:44:53;;;;;;;1.85;0.20;;;;;;;26.48;33.27;100283.16;1702420;82;21699;-68
2022/06/25 11:47:27;;;;;;;0.57;0.33;;;;;;;26.33;34.12;100273.27;1706896;84;21173;-67
2022/06/25 11:49:54;;;;;;;0.42;0.40;;;;;;;26.27;34.23;100271.72;1702940;82;21137;-68
2022/06/25 11:52:25;;;;;;;1.37;0.40;;;;;;;26.22;34.63;100273.42;1704105;84;21207;-66
2022/06/25 11:54:52;;;;;;;1.67;0.20;;;;;;;26.19;34.62;100264.44;1694699;84;21032;-69
2022/06/25 11:57:23;;;;;;;1.57;0.75;;;;;;;26.26;34.53;100264.09;1694629;82;21132;-68